sensor_id;sensor_type;location;lat;lon;timestamp;temperature;humidity
39951;DHT22;25629;51.444;-2.606;2023-10-13T00:01:07;16.40;99.90
39951;DHT22;25629;51.444;-2.606;2023-10-13T00:03:33;16.50;99.90
39951;DHT22;25629;51.444;-2.606;2023-10-13T00:05:59;16.60;99.90
39951;DHT22;25629;51.444;-2.606;2023-10-13T00:08:29;16.70;99.90
39951;DHT22;25629;51.444;-2.606;2023-10-13T00:10:55;16.70;99.90
39951;DHT22;25629;51.444;-2.606;2023-10-13T00:13:27;16.80;99.90
39951;DHT22;25629;51.444;-2.606;2023-10-13T00:15:53;16.80;99.90
39951;DHT22;25629;51.444;-2.606;2023-10-13T00:18:29;16.90;99.90
39951;DHT22;25629;51.444;-2.606;2023-10-13T00:21:07;16.90;99.90
39951;DHT22;25629;51.444;-2.606;2023-10-13T00:23:43;17.00;99.90
39951;DHT22;25629;51.444;-2.606;2023-10-13T00:26:19;17.00;99.90
39951;DHT22;25629;51.444;-2.606;2023-10-13T00:28:48;17.00;99.90
39951;DHT22;25629;51.444;-2.606;2023-10-13T00:31:24;17.00;99.90
39951;DHT22;25629;51.444;-2.606;2023-10-13T00:33:51;17.00;99.90
39951;DHT22;25629;51.444;-2.606;2023-10-13T00:36:21;16.90;99.90
39951;DHT22;25629;51.444;-2.606;2023-10-13T00:38:46;16.80;99.90
39951;DHT22;25629;51.444;-2.606;2023-10-13T00:41:17;16.80;99.90
39951;DHT22;25629;51.444;-2.606;2023-10-13T00:43:58;16.80;99.90
39951;DHT22;25629;51.444;-2.606;2023-10-13T00:46:32;16.70;99.90
39951;DHT22;25629;51.444;-2.606;2023-10-13T00:48:59;16.70;99.90
39951;DHT22;25629;51.444;-2.606;2023-10-13T00:51:25;16.70;99.90
39951;DHT22;25629;51.444;-2.606;2023-10-13T00:53:59;16.70;99.90
39951;DHT22;25629;51.444;-2.606;2023-10-13T00:56:25;16.70;99.90
39951;DHT22;25629;51.444;-2.606;2023-10-13T00:58:54;16.60;99.90
39951;DHT22;25629;51.444;-2.606;2023-10-13T01:01:23;16.60;99.90
39951;DHT22;25629;51.444;-2.606;2023-10-13T01:03:55;16.60;99.90
39951;DHT22;25629;51.444;-2.606;2023-10-13T01:06:22;16.60;99.90
39951;DHT22;25629;51.444;-2.606;2023-10-13T01:09:03;16.60;99.90
39951;DHT22;25629;51.444;-2.606;2023-10-13T01:11:40;16.60;99.90
39951;DHT22;25629;51.444;-2.606;2023-10-13T01:14:06;16.60;99.90
39951;DHT22;25629;51.444;-2.606;2023-10-13T01:16:31;16.60;99.90
39951;DHT22;25629;51.444;-2.606;2023-10-13T01:18:58;16.50;99.90
39951;DHT22;25629;51.444;-2.606;2023-10-13T01:21:30;16.60;99.90
39951;DHT22;25629;51.444;-2.606;2023-10-13T01:23:57;16.50;99.90
39951;DHT22;25629;51.444;-2.606;2023-10-13T01:26:22;16.60;99.90
39951;DHT22;25629;51.444;-2.606;2023-10-13T01:28:51;16.60;99.90
39951;DHT22;25629;51.444;-2.606;2023-10-13T01:31:19;16.50;99.90
39951;DHT22;25629;51.444;-2.606;2023-10-13T01:34:02;16.60;99.90
39951;DHT22;25629;51.444;-2.606;2023-10-13T01:36:28;16.60;99.90
39951;DHT22;25629;51.444;-2.606;2023-10-13T01:38:54;16.50;99.90
39951;DHT22;25629;51.444;-2.606;2023-10-13T01:41:22;16.50;99.90
39951;DHT22;25629;51.444;-2.606;2023-10-13T01:46:51;16.50;99.90
39951;DHT22;25629;51.444;-2.606;2023-10-13T01:49:17;16.60;99.90
39951;DHT22;25629;51.444;-2.606;2023-10-13T01:51:43;16.60;99.90
39951;DHT22;25629;51.444;-2.606;2023-10-13T01:54:09;16.60;99.90
39951;DHT22;25629;51.444;-2.606;2023-10-13T01:56:38;16.60;99.90
39951;DHT22;25629;51.444;-2.606;2023-10-13T01:59:09;16.60;99.90
39951;DHT22;25629;51.444;-2.606;2023-10-13T02:01:35;16.60;99.90
39951;DHT22;25629;51.444;-2.606;2023-10-13T02:04:01;16.60;99.90
39951;DHT22;25629;51.444;-2.606;2023-10-13T02:06:33;16.60;99.90
39951;DHT22;25629;51.444;-2.606;2023-10-13T02:09:04;16.60;99.90
39951;DHT22;25629;51.444;-2.606;2023-10-13T02:11:41;16.60;99.90
39951;DHT22;25629;51.444;-2.606;2023-10-13T02:14:07;16.60;99.90
39951;DHT22;25629;51.444;-2.606;2023-10-13T02:16:37;16.60;99.90
39951;DHT22;25629;51.444;-2.606;2023-10-13T02:19:03;16.70;99.90
39951;DHT22;25629;51.444;-2.606;2023-10-13T02:21:33;16.70;99.90
39951;DHT22;25629;51.444;-2.606;2023-10-13T02:24:07;16.70;99.90
39951;DHT22;25629;51.444;-2.606;2023-10-13T02:26:38;16.70;99.90
39951;DHT22;25629;51.444;-2.606;2023-10-13T02:29:06;16.80;99.90
39951;DHT22;25629;51.444;-2.606;2023-10-13T02:31:38;16.80;99.90
39951;DHT22;25629;51.444;-2.606;2023-10-13T02:34:04;16.90;99.90
39951;DHT22;25629;51.444;-2.606;2023-10-13T02:36:36;16.90;99.90
39951;DHT22;25629;51.444;-2.606;2023-10-13T02:39:02;17.00;99.90
39951;DHT22;25629;51.444;-2.606;2023-10-13T02:41:32;17.10;99.90
39951;DHT22;25629;51.444;-2.606;2023-10-13T02:43:58;17.20;99.90
39951;DHT22;25629;51.444;-2.606;2023-10-13T02:46:24;17.20;99.90
39951;DHT22;25629;51.444;-2.606;2023-10-13T02:48:55;17.30;99.90
39951;DHT22;25629;51.444;-2.606;2023-10-13T02:51:23;17.30;99.90
39951;DHT22;25629;51.444;-2.606;2023-10-13T02:53:57;17.40;99.90
39951;DHT22;25629;51.444;-2.606;2023-10-13T02:56:28;17.50;99.90
39951;DHT22;25629;51.444;-2.606;2023-10-13T02:58:54;17.50;99.90
39951;DHT22;25629;51.444;-2.606;2023-10-13T03:01:22;17.60;99.90
39951;DHT22;25629;51.444;-2.606;2023-10-13T03:03:53;17.60;99.90
39951;DHT22;25629;51.444;-2.606;2023-10-13T03:06:24;17.60;99.90
39951;DHT22;25629;51.444;-2.606;2023-10-13T03:08:57;17.60;99.90
39951;DHT22;25629;51.444;-2.606;2023-10-13T03:11:25;17.70;99.90
39951;DHT22;25629;51.444;-2.606;2023-10-13T03:13:51;17.70;99.90
39951;DHT22;25629;51.444;-2.606;2023-10-13T03:16:18;17.80;99.90
39951;DHT22;25629;51.444;-2.606;2023-10-13T03:18:48;17.80;99.90
39951;DHT22;25629;51.444;-2.606;2023-10-13T03:21:21;17.80;99.90
39951;DHT22;25629;51.444;-2.606;2023-10-13T03:23:59;17.90;99.90
39951;DHT22;25629;51.444;-2.606;2023-10-13T03:26:32;17.90;99.90
39951;DHT22;25629;51.444;-2.606;2023-10-13T03:29:02;17.90;99.90
39951;DHT22;25629;51.444;-2.606;2023-10-13T03:31:30;17.90;99.90
39951;DHT22;25629;51.444;-2.606;2023-10-13T03:33:55;18.00;99.90
39951;DHT22;25629;51.444;-2.606;2023-10-13T03:36:27;18.00;99.90
39951;DHT22;25629;51.444;-2.606;2023-10-13T03:39:22;18.10;99.90
39951;DHT22;25629;51.444;-2.606;2023-10-13T03:41:53;18.10;99.90
39951;DHT22;25629;51.444;-2.606;2023-10-13T03:44:19;18.10;99.90
39951;DHT22;25629;51.444;-2.606;2023-10-13T03:46:45;18.10;99.90
39951;DHT22;25629;51.444;-2.606;2023-10-13T03:49:16;18.10;99.90
39951;DHT22;25629;51.444;-2.606;2023-10-13T03:51:47;18.10;99.90
39951;DHT22;25629;51.444;-2.606;2023-10-13T03:54:13;18.20;99.90
39951;DHT22;25629;51.444;-2.606;2023-10-13T03:56:42;18.10;99.90
39951;DHT22;25629;51.444;-2.606;2023-10-13T03:59:09;18.10;99.90
39951;DHT22;25629;51.444;-2.606;2023-10-13T04:01:43;18.10;99.90
39951;DHT22;25629;51.444;-2.606;2023-10-13T04:04:09;18.10;99.90
39951;DHT22;25629;51.444;-2.606;2023-10-13T04:06:37;18.10;99.90
39951;DHT22;25629;51.444;-2.606;2023-10-13T04:09:15;18.10;99.90
39951;DHT22;25629;51.444;-2.606;2023-10-13T04:11:56;18.10;99.90
39951;DHT22;25629;51.444;-2.606;2023-10-13T04:14:25;18.20;99.90
39951;DHT22;25629;51.444;-2.606;2023-10-13T04:17:10;18.20;99.90
39951;DHT22;25629;51.444;-2.606;2023-10-13T04:19:52;18.20;99.90
39951;DHT22;25629;51.444;-2.606;2023-10-13T04:22:39;18.30;99.90
39951;DHT22;25629;51.444;-2.606;2023-10-13T04:27:58;18.30;99.90
39951;DHT22;25629;51.444;-2.606;2023-10-13T04:33:30;18.40;99.90
39951;DHT22;25629;51.444;-2.606;2023-10-13T04:36:14;18.40;99.90
39951;DHT22;25629;51.444;-2.606;2023-10-13T04:38:46;18.40;99.90
39951;DHT22;25629;51.444;-2.606;2023-10-13T04:41:21;18.50;99.90
39951;DHT22;25629;51.444;-2.606;2023-10-13T04:43:49;18.50;99.90
39951;DHT22;25629;51.444;-2.606;2023-10-13T04:46:21;18.50;99.90
39951;DHT22;25629;51.444;-2.606;2023-10-13T04:49:00;18.50;99.90
39951;DHT22;25629;51.444;-2.606;2023-10-13T04:51:37;18.60;99.90
39951;DHT22;25629;51.444;-2.606;2023-10-13T04:54:24;18.60;99.90
39951;DHT22;25629;51.444;-2.606;2023-10-13T04:56:59;18.60;99.90
39951;DHT22;25629;51.444;-2.606;2023-10-13T04:59:48;18.60;99.90
39951;DHT22;25629;51.444;-2.606;2023-10-13T05:02:32;18.70;99.90
39951;DHT22;25629;51.444;-2.606;2023-10-13T05:05:01;18.70;99.90
39951;DHT22;25629;51.444;-2.606;2023-10-13T05:07:39;18.70;99.90
39951;DHT22;25629;51.444;-2.606;2023-10-13T05:10:23;18.70;99.90
39951;DHT22;25629;51.444;-2.606;2023-10-13T05:13:08;18.70;99.90
39951;DHT22;25629;51.444;-2.606;2023-10-13T05:15:52;18.70;99.90
39951;DHT22;25629;51.444;-2.606;2023-10-13T05:18:36;18.70;99.90
39951;DHT22;25629;51.444;-2.606;2023-10-13T05:21:21;18.80;99.90
39951;DHT22;25629;51.444;-2.606;2023-10-13T05:24:05;18.80;99.90
39951;DHT22;25629;51.444;-2.606;2023-10-13T05:26:49;18.80;99.90
39951;DHT22;25629;51.444;-2.606;2023-10-13T05:29:38;18.90;99.90
39951;DHT22;25629;51.444;-2.606;2023-10-13T05:32:22;18.90;99.90
39951;DHT22;25629;51.444;-2.606;2023-10-13T05:35:06;18.90;99.90
39951;DHT22;25629;51.444;-2.606;2023-10-13T05:37:51;18.90;99.90
39951;DHT22;25629;51.444;-2.606;2023-10-13T05:40:35;19.00;99.90
39951;DHT22;25629;51.444;-2.606;2023-10-13T05:43:33;19.00;99.90
39951;DHT22;25629;51.444;-2.606;2023-10-13T05:46:17;19.00;99.90
39951;DHT22;25629;51.444;-2.606;2023-10-13T05:49:01;19.00;99.90
39951;DHT22;25629;51.444;-2.606;2023-10-13T05:51:28;19.00;99.90
39951;DHT22;25629;51.444;-2.606;2023-10-13T05:54:03;19.00;99.90
39951;DHT22;25629;51.444;-2.606;2023-10-13T05:56:38;19.00;99.90
39951;DHT22;25629;51.444;-2.606;2023-10-13T05:59:23;19.00;99.90
39951;DHT22;25629;51.444;-2.606;2023-10-13T06:02:07;19.00;99.90
39951;DHT22;25629;51.444;-2.606;2023-10-13T06:04:51;19.00;99.90
39951;DHT22;25629;51.444;-2.606;2023-10-13T06:07:35;19.00;99.90
39951;DHT22;25629;51.444;-2.606;2023-10-13T06:10:20;19.00;99.90
39951;DHT22;25629;51.444;-2.606;2023-10-13T06:13:04;19.00;99.90
39951;DHT22;25629;51.444;-2.606;2023-10-13T06:15:48;19.00;99.90
39951;DHT22;25629;51.444;-2.606;2023-10-13T06:18:33;19.00;99.90
39951;DHT22;25629;51.444;-2.606;2023-10-13T06:21:18;19.10;99.90
39951;DHT22;25629;51.444;-2.606;2023-10-13T06:24:01;19.00;99.90
39951;DHT22;25629;51.444;-2.606;2023-10-13T06:26:49;19.10;99.90
39951;DHT22;25629;51.444;-2.606;2023-10-13T06:29:33;19.10;99.90
39951;DHT22;25629;51.444;-2.606;2023-10-13T06:31:59;19.10;99.90
39951;DHT22;25629;51.444;-2.606;2023-10-13T06:34:27;19.00;99.90
39951;DHT22;25629;51.444;-2.606;2023-10-13T06:37:06;19.10;99.90
39951;DHT22;25629;51.444;-2.606;2023-10-13T06:39:48;19.10;99.90
39951;DHT22;25629;51.444;-2.606;2023-10-13T06:42:14;19.00;99.90
39951;DHT22;25629;51.444;-2.606;2023-10-13T06:44:40;19.00;99.90
39951;DHT22;25629;51.444;-2.606;2023-10-13T06:47:10;19.00;99.90
39951;DHT22;25629;51.444;-2.606;2023-10-13T06:49:37;19.00;99.90
39951;DHT22;25629;51.444;-2.606;2023-10-13T06:52:07;19.00;99.90
39951;DHT22;25629;51.444;-2.606;2023-10-13T06:54:32;19.00;99.90
39951;DHT22;25629;51.444;-2.606;2023-10-13T06:57:02;19.10;99.90
39951;DHT22;25629;51.444;-2.606;2023-10-13T06:59:32;19.10;99.90
39951;DHT22;25629;51.444;-2.606;2023-10-13T07:02:00;19.10;99.90
39951;DHT22;25629;51.444;-2.606;2023-10-13T07:04:31;19.10;99.90
39951;DHT22;25629;51.444;-2.606;2023-10-13T07:06:57;19.20;99.90
39951;DHT22;25629;51.444;-2.606;2023-10-13T07:09:22;19.20;99.90
39951;DHT22;25629;51.444;-2.606;2023-10-13T07:12:17;19.20;99.90
39951;DHT22;25629;51.444;-2.606;2023-10-13T07:14:48;19.30;99.90
39951;DHT22;25629;51.444;-2.606;2023-10-13T07:17:32;19.30;99.90
39951;DHT22;25629;51.444;-2.606;2023-10-13T07:20:03;19.40;99.90
39951;DHT22;25629;51.444;-2.606;2023-10-13T07:22:43;19.40;99.90
39951;DHT22;25629;51.444;-2.606;2023-10-13T07:25:23;19.50;99.90
39951;DHT22;25629;51.444;-2.606;2023-10-13T07:27:50;19.50;99.90
39951;DHT22;25629;51.444;-2.606;2023-10-13T07:30:17;19.50;99.90
39951;DHT22;25629;51.444;-2.606;2023-10-13T07:32:45;19.50;99.90
39951;DHT22;25629;51.444;-2.606;2023-10-13T07:35:14;19.50;99.90
39951;DHT22;25629;51.444;-2.606;2023-10-13T07:37:41;19.50;99.90
39951;DHT22;25629;51.444;-2.606;2023-10-13T07:40:08;19.60;99.90
39951;DHT22;25629;51.444;-2.606;2023-10-13T07:42:47;19.60;99.90
39951;DHT22;25629;51.444;-2.606;2023-10-13T07:45:13;19.60;99.90
39951;DHT22;25629;51.444;-2.606;2023-10-13T07:47:38;19.70;99.90
39951;DHT22;25629;51.444;-2.606;2023-10-13T07:50:05;19.70;99.90
39951;DHT22;25629;51.444;-2.606;2023-10-13T07:52:32;19.70;99.90
39951;DHT22;25629;51.444;-2.606;2023-10-13T07:55:06;19.70;99.90
39951;DHT22;25629;51.444;-2.606;2023-10-13T07:57:39;19.60;99.90
39951;DHT22;25629;51.444;-2.606;2023-10-13T08:00:20;19.60;99.90
39951;DHT22;25629;51.444;-2.606;2023-10-13T08:03:12;19.60;99.90
39951;DHT22;25629;51.444;-2.606;2023-10-13T08:05:44;19.70;99.90
39951;DHT22;25629;51.444;-2.606;2023-10-13T08:08:28;19.60;99.90
39951;DHT22;25629;51.444;-2.606;2023-10-13T08:11:06;19.60;99.90
39951;DHT22;25629;51.444;-2.606;2023-10-13T08:13:51;19.60;99.90
39951;DHT22;25629;51.444;-2.606;2023-10-13T08:16:21;19.70;99.90
39951;DHT22;25629;51.444;-2.606;2023-10-13T08:18:51;19.80;99.90
39951;DHT22;25629;51.444;-2.606;2023-10-13T08:21:17;19.80;99.90
39951;DHT22;25629;51.444;-2.606;2023-10-13T08:23:51;19.80;99.90
39951;DHT22;25629;51.444;-2.606;2023-10-13T08:26:22;19.80;99.90
39951;DHT22;25629;51.444;-2.606;2023-10-13T08:29:00;19.80;99.90
39951;DHT22;25629;51.444;-2.606;2023-10-13T08:31:46;19.70;99.90
39951;DHT22;25629;51.444;-2.606;2023-10-13T08:34:30;19.60;99.90
39951;DHT22;25629;51.444;-2.606;2023-10-13T08:37:06;19.60;99.90
39951;DHT22;25629;51.444;-2.606;2023-10-13T08:39:44;19.60;99.90
39951;DHT22;25629;51.444;-2.606;2023-10-13T08:42:29;19.50;99.90
39951;DHT22;25629;51.444;-2.606;2023-10-13T08:45:10;19.50;99.90
39951;DHT22;25629;51.444;-2.606;2023-10-13T08:47:49;19.60;99.90
39951;DHT22;25629;51.444;-2.606;2023-10-13T08:50:54;19.50;99.90
39951;DHT22;25629;51.444;-2.606;2023-10-13T08:53:21;19.60;99.90
39951;DHT22;25629;51.444;-2.606;2023-10-13T09:04:06;20.30;99.90
39951;DHT22;25629;51.444;-2.606;2023-10-13T09:06:44;20.40;99.90
39951;DHT22;25629;51.444;-2.606;2023-10-13T09:09:13;20.50;99.90
39951;DHT22;25629;51.444;-2.606;2023-10-13T09:11:55;20.60;99.90
39951;DHT22;25629;51.444;-2.606;2023-10-13T09:14:39;20.80;99.90
39951;DHT22;25629;51.444;-2.606;2023-10-13T09:17:22;20.80;99.90
39951;DHT22;25629;51.444;-2.606;2023-10-13T09:20:07;20.70;99.90
39951;DHT22;25629;51.444;-2.606;2023-10-13T09:25:32;21.10;99.90
39951;DHT22;25629;51.444;-2.606;2023-10-13T09:30:51;21.20;99.90
39951;DHT22;25629;51.444;-2.606;2023-10-13T09:33:21;21.30;99.90
39951;DHT22;25629;51.444;-2.606;2023-10-13T09:35:58;21.50;99.90
39951;DHT22;25629;51.444;-2.606;2023-10-13T09:38:27;21.40;97.90
39951;DHT22;25629;51.444;-2.606;2023-10-13T09:40:53;21.40;99.90
39951;DHT22;25629;51.444;-2.606;2023-10-13T09:43:26;21.40;98.70
39951;DHT22;25629;51.444;-2.606;2023-10-13T09:46:00;21.50;98.00
39951;DHT22;25629;51.444;-2.606;2023-10-13T09:50:59;21.70;98.70
39951;DHT22;25629;51.444;-2.606;2023-10-13T09:53:25;21.90;94.70
39951;DHT22;25629;51.444;-2.606;2023-10-13T09:55:54;22.00;93.30
39951;DHT22;25629;51.444;-2.606;2023-10-13T09:58:26;22.10;83.90
39951;DHT22;25629;51.444;-2.606;2023-10-13T10:01:02;22.00;83.00
39951;DHT22;25629;51.444;-2.606;2023-10-13T10:03:47;22.10;84.40
39951;DHT22;25629;51.444;-2.606;2023-10-13T10:06:31;22.00;83.50
39951;DHT22;25629;51.444;-2.606;2023-10-13T10:09:04;21.80;86.40
39951;DHT22;25629;51.444;-2.606;2023-10-13T10:19:01;21.00;97.90
39951;DHT22;25629;51.444;-2.606;2023-10-13T10:21:35;21.10;98.60
39951;DHT22;25629;51.444;-2.606;2023-10-13T10:24:01;21.30;98.90
39951;DHT22;25629;51.444;-2.606;2023-10-13T10:26:33;21.10;98.80
39951;DHT22;25629;51.444;-2.606;2023-10-13T10:28:58;21.00;97.30
39951;DHT22;25629;51.444;-2.606;2023-10-13T10:31:33;20.80;99.90
39951;DHT22;25629;51.444;-2.606;2023-10-13T10:34:15;20.70;99.90
39951;DHT22;25629;51.444;-2.606;2023-10-13T10:36:56;20.80;99.90
39951;DHT22;25629;51.444;-2.606;2023-10-13T10:39:33;20.80;99.90
39951;DHT22;25629;51.444;-2.606;2023-10-13T10:42:07;21.00;99.90
39951;DHT22;25629;51.444;-2.606;2023-10-13T10:44:40;21.20;99.90
39951;DHT22;25629;51.444;-2.606;2023-10-13T10:47:11;21.20;99.90
39951;DHT22;25629;51.444;-2.606;2023-10-13T10:49:45;21.10;99.90
39951;DHT22;25629;51.444;-2.606;2023-10-13T10:52:10;21.20;99.90
39951;DHT22;25629;51.444;-2.606;2023-10-13T10:54:44;21.40;99.90
39951;DHT22;25629;51.444;-2.606;2023-10-13T10:57:09;21.40;92.50
39951;DHT22;25629;51.444;-2.606;2023-10-13T10:59:42;21.70;91.70
39951;DHT22;25629;51.444;-2.606;2023-10-13T11:02:08;22.00;88.00
39951;DHT22;25629;51.444;-2.606;2023-10-13T11:04:34;22.30;67.50
39951;DHT22;25629;51.444;-2.606;2023-10-13T11:07:00;22.30;67.90
39951;DHT22;25629;51.444;-2.606;2023-10-13T11:09:30;22.40;56.10
39951;DHT22;25629;51.444;-2.606;2023-10-13T11:14:29;22.40;58.00
39951;DHT22;25629;51.444;-2.606;2023-10-13T11:16:55;22.50;51.40
39951;DHT22;25629;51.444;-2.606;2023-10-13T11:19:38;22.40;53.30
39951;DHT22;25629;51.444;-2.606;2023-10-13T11:22:13;22.10;54.70
39951;DHT22;25629;51.444;-2.606;2023-10-13T11:25:01;21.60;67.90
39951;DHT22;25629;51.444;-2.606;2023-10-13T11:27:39;21.10;89.60
39951;DHT22;25629;51.444;-2.606;2023-10-13T11:30:14;20.90;91.90
39951;DHT22;25629;51.444;-2.606;2023-10-13T11:32:42;20.80;94.80
39951;DHT22;25629;51.444;-2.606;2023-10-13T11:35:08;20.70;97.50
39951;DHT22;25629;51.444;-2.606;2023-10-13T11:37:55;20.60;99.90
39951;DHT22;25629;51.444;-2.606;2023-10-13T11:40:39;20.50;99.90
39951;DHT22;25629;51.444;-2.606;2023-10-13T11:43:23;20.50;99.90
39951;DHT22;25629;51.444;-2.606;2023-10-13T11:45:49;20.40;99.90
39951;DHT22;25629;51.444;-2.606;2023-10-13T11:48:41;20.40;99.90
39951;DHT22;25629;51.444;-2.606;2023-10-13T11:51:08;20.50;99.90
39951;DHT22;25629;51.444;-2.606;2023-10-13T11:53:34;20.70;99.90
39951;DHT22;25629;51.444;-2.606;2023-10-13T11:56:03;20.70;99.90
39951;DHT22;25629;51.444;-2.606;2023-10-13T11:58:38;20.70;99.90
39951;DHT22;25629;51.444;-2.606;2023-10-13T12:01:04;20.60;99.90
39951;DHT22;25629;51.444;-2.606;2023-10-13T12:03:38;20.80;99.90
39951;DHT22;25629;51.444;-2.606;2023-10-13T12:06:23;21.00;97.40
39951;DHT22;25629;51.444;-2.606;2023-10-13T12:09:00;21.00;96.70
39951;DHT22;25629;51.444;-2.606;2023-10-13T12:11:41;21.10;96.00
39951;DHT22;25629;51.444;-2.606;2023-10-13T12:14:10;21.30;93.90
39951;DHT22;25629;51.444;-2.606;2023-10-13T12:16:47;21.30;95.80
39951;DHT22;25629;51.444;-2.606;2023-10-13T12:19:17;21.10;98.20
39951;DHT22;25629;51.444;-2.606;2023-10-13T12:21:43;21.00;99.90
39951;DHT22;25629;51.444;-2.606;2023-10-13T12:24:09;20.80;99.90
39951;DHT22;25629;51.444;-2.606;2023-10-13T12:26:46;20.90;99.90
39951;DHT22;25629;51.444;-2.606;2023-10-13T12:29:12;20.90;99.70
39951;DHT22;25629;51.444;-2.606;2023-10-13T12:31:48;21.00;99.90
39951;DHT22;25629;51.444;-2.606;2023-10-13T12:34:26;21.10;99.30
39951;DHT22;25629;51.444;-2.606;2023-10-13T12:37:12;20.90;99.90
39951;DHT22;25629;51.444;-2.606;2023-10-13T12:39:57;20.70;99.90
39951;DHT22;25629;51.444;-2.606;2023-10-13T12:42:41;20.70;99.90
39951;DHT22;25629;51.444;-2.606;2023-10-13T12:45:26;20.60;99.90
39951;DHT22;25629;51.444;-2.606;2023-10-13T12:48:10;20.70;99.90
39951;DHT22;25629;51.444;-2.606;2023-10-13T12:50:54;20.70;99.90
39951;DHT22;25629;51.444;-2.606;2023-10-13T12:53:43;20.60;99.90
39951;DHT22;25629;51.444;-2.606;2023-10-13T12:56:10;20.50;99.90
39951;DHT22;25629;51.444;-2.606;2023-10-13T12:58:36;20.40;99.90
39951;DHT22;25629;51.444;-2.606;2023-10-13T13:01:02;20.40;99.90
39951;DHT22;25629;51.444;-2.606;2023-10-13T13:03:34;20.50;99.90
39951;DHT22;25629;51.444;-2.606;2023-10-13T13:05:59;20.60;99.90
39951;DHT22;25629;51.444;-2.606;2023-10-13T13:08:33;20.50;99.90
39951;DHT22;25629;51.444;-2.606;2023-10-13T13:11:00;20.30;99.90
39951;DHT22;25629;51.444;-2.606;2023-10-13T13:13:26;20.10;99.90
39951;DHT22;25629;51.444;-2.606;2023-10-13T13:15:52;20.10;99.90
39951;DHT22;25629;51.444;-2.606;2023-10-13T13:18:18;20.00;99.90
39951;DHT22;25629;51.444;-2.606;2023-10-13T13:20:44;19.80;99.90
39951;DHT22;25629;51.444;-2.606;2023-10-13T13:23:20;19.70;99.90
39951;DHT22;25629;51.444;-2.606;2023-10-13T13:25:47;19.50;99.90
39951;DHT22;25629;51.444;-2.606;2023-10-13T13:28:12;19.10;99.90
39951;DHT22;25629;51.444;-2.606;2023-10-13T13:30:40;18.90;99.90
39951;DHT22;25629;51.444;-2.606;2023-10-13T13:33:06;18.80;99.90
39951;DHT22;25629;51.444;-2.606;2023-10-13T13:35:40;18.70;99.90
39951;DHT22;25629;51.444;-2.606;2023-10-13T13:38:11;18.70;99.90
39951;DHT22;25629;51.444;-2.606;2023-10-13T13:40:53;18.70;99.90
39951;DHT22;25629;51.444;-2.606;2023-10-13T13:43:20;18.70;99.90
39951;DHT22;25629;51.444;-2.606;2023-10-13T13:46:21;18.60;99.90
39951;DHT22;25629;51.444;-2.606;2023-10-13T13:48:50;18.60;99.90
39951;DHT22;25629;51.444;-2.606;2023-10-13T13:51:17;18.60;99.90
39951;DHT22;25629;51.444;-2.606;2023-10-13T13:53:51;18.60;99.90
39951;DHT22;25629;51.444;-2.606;2023-10-13T13:56:18;18.60;99.90
39951;DHT22;25629;51.444;-2.606;2023-10-13T13:58:47;18.50;99.90
39951;DHT22;25629;51.444;-2.606;2023-10-13T14:01:13;18.30;99.90
39951;DHT22;25629;51.444;-2.606;2023-10-13T14:03:47;18.10;99.90
39951;DHT22;25629;51.444;-2.606;2023-10-13T14:06:16;18.00;99.90
39951;DHT22;25629;51.444;-2.606;2023-10-13T14:08:54;17.80;99.90
39951;DHT22;25629;51.444;-2.606;2023-10-13T14:11:20;17.70;99.90
39951;DHT22;25629;51.444;-2.606;2023-10-13T14:13:46;17.70;99.90
39951;DHT22;25629;51.444;-2.606;2023-10-13T14:16:15;17.70;99.90
39951;DHT22;25629;51.444;-2.606;2023-10-13T14:18:44;17.70;99.90
39951;DHT22;25629;51.444;-2.606;2023-10-13T14:21:10;17.70;99.90
39951;DHT22;25629;51.444;-2.606;2023-10-13T14:23:35;17.70;99.90
39951;DHT22;25629;51.444;-2.606;2023-10-13T14:26:01;17.70;99.90
39951;DHT22;25629;51.444;-2.606;2023-10-13T14:28:27;17.70;99.90
39951;DHT22;25629;51.444;-2.606;2023-10-13T14:31:09;17.60;99.90
39951;DHT22;25629;51.444;-2.606;2023-10-13T14:33:38;17.50;99.90
39951;DHT22;25629;51.444;-2.606;2023-10-13T14:36:04;17.40;99.90
39951;DHT22;25629;51.444;-2.606;2023-10-13T14:38:30;17.30;99.90
39951;DHT22;25629;51.444;-2.606;2023-10-13T14:40:59;17.10;99.90
39951;DHT22;25629;51.444;-2.606;2023-10-13T14:43:24;17.10;99.90
39951;DHT22;25629;51.444;-2.606;2023-10-13T14:45:53;17.10;99.90
39951;DHT22;25629;51.444;-2.606;2023-10-13T14:48:18;17.10;99.90
39951;DHT22;25629;51.444;-2.606;2023-10-13T14:50:44;17.10;99.90
39951;DHT22;25629;51.444;-2.606;2023-10-13T14:53:10;17.10;99.90
39951;DHT22;25629;51.444;-2.606;2023-10-13T14:55:36;17.10;99.90
39951;DHT22;25629;51.444;-2.606;2023-10-13T14:58:04;17.10;99.90
39951;DHT22;25629;51.444;-2.606;2023-10-13T15:00:32;17.10;99.90
39951;DHT22;25629;51.444;-2.606;2023-10-13T15:02:58;17.10;99.90
39951;DHT22;25629;51.444;-2.606;2023-10-13T15:05:27;17.00;99.90
39951;DHT22;25629;51.444;-2.606;2023-10-13T15:07:55;16.90;99.90
39951;DHT22;25629;51.444;-2.606;2023-10-13T15:10:21;16.90;99.90
39951;DHT22;25629;51.444;-2.606;2023-10-13T15:12:46;16.90;99.90
39951;DHT22;25629;51.444;-2.606;2023-10-13T15:15:14;16.90;99.90
39951;DHT22;25629;51.444;-2.606;2023-10-13T15:17:44;16.90;99.90
39951;DHT22;25629;51.444;-2.606;2023-10-13T15:20:09;16.80;99.90
39951;DHT22;25629;51.444;-2.606;2023-10-13T15:22:40;16.80;99.90
39951;DHT22;25629;51.444;-2.606;2023-10-13T15:25:06;16.80;99.90
39951;DHT22;25629;51.444;-2.606;2023-10-13T15:27:43;16.80;99.90
39951;DHT22;25629;51.444;-2.606;2023-10-13T15:30:10;16.70;99.90
39951;DHT22;25629;51.444;-2.606;2023-10-13T15:32:46;16.60;99.90
39951;DHT22;25629;51.444;-2.606;2023-10-13T15:35:11;16.60;99.90
39951;DHT22;25629;51.444;-2.606;2023-10-13T15:37:41;16.50;99.90
39951;DHT22;25629;51.444;-2.606;2023-10-13T15:40:09;16.30;99.90
39951;DHT22;25629;51.444;-2.606;2023-10-13T15:42:41;15.80;99.90
39951;DHT22;25629;51.444;-2.606;2023-10-13T15:45:07;15.40;99.90
39951;DHT22;25629;51.444;-2.606;2023-10-13T15:47:45;15.30;99.90
39951;DHT22;25629;51.444;-2.606;2023-10-13T15:50:12;15.20;99.90
39951;DHT22;25629;51.444;-2.606;2023-10-13T15:52:43;15.10;99.90
39951;DHT22;25629;51.444;-2.606;2023-10-13T15:55:15;15.10;99.90
39951;DHT22;25629;51.444;-2.606;2023-10-13T15:57:44;15.00;99.90
39951;DHT22;25629;51.444;-2.606;2023-10-13T16:00:10;15.00;99.90
39951;DHT22;25629;51.444;-2.606;2023-10-13T16:02:55;14.90;99.90
39951;DHT22;25629;51.444;-2.606;2023-10-13T16:05:22;14.90;99.90
39951;DHT22;25629;51.444;-2.606;2023-10-13T16:07:50;14.90;99.90
39951;DHT22;25629;51.444;-2.606;2023-10-13T16:10:16;14.80;99.90
39951;DHT22;25629;51.444;-2.606;2023-10-13T16:12:42;14.70;99.90
39951;DHT22;25629;51.444;-2.606;2023-10-13T16:15:10;14.70;99.90
39951;DHT22;25629;51.444;-2.606;2023-10-13T16:17:41;14.70;99.90
39951;DHT22;25629;51.444;-2.606;2023-10-13T16:20:07;14.60;99.90
39951;DHT22;25629;51.444;-2.606;2023-10-13T16:22:43;14.70;99.90
39951;DHT22;25629;51.444;-2.606;2023-10-13T16:25:09;14.70;99.90